Sagehen Creek Weather observations

Data are for observation ending at time listed.
 Day   Time    Ave.   Ave.  Ave.  Vector   Max.   Stn.    Total    Solar   Ave.  
  of    of     Air    Rel.  Wind   Wind    Wind   Baro.  Precip.   Rad.    Soil  
Year   Day     Temp.  Hum.  Speed  Dir.    Gust   Pres.                    Temp. 
2014   (PST)    F      %     mph   deg.    mph     mb.     in.     W/m2     F   
------------------------------------------------------------------------------
 297   18:50   54.7    32    2.0   234      4.4   835.0   13.69       0    999.0
 297   19:00   53.7    34    2.6   289      6.5   834.9   13.69       0    999.0
 297   19:10   54.3    32    2.8   281      8.2   835.1   13.69       0    999.0
 297   19:20   54.1    32    2.3   282      9.1   835.0   13.69       0    999.0
 297   19:30   54.0    33    2.4   270      5.7   834.9   13.69       0    999.0
 297   19:40   53.2    35    1.8   269      4.6   835.2   13.69       0    999.0
 297   19:50   51.5    39    2.3   243      8.1   835.2   13.69       0    999.0
 297   20:00   51.9    38    2.5   280      7.1   835.3   13.69       0    999.0
 297   20:10   50.6    41    2.5   260      5.8   835.1   13.69       0    999.0
 297   20:20   50.8    40    2.6   266      5.7   835.1   13.69       0    999.0
 297   20:30   32.0     0    1.1   227      2.2   417.6   13.69       0    999.0
 297   20:40   47.8    44    1.8   277      4.6   835.1   13.69       0    999.0
 297   20:50   48.3    48    1.9   262      4.1   835.0   13.69       0    999.0
 297   21:00   48.4    47    2.1   272      4.7   834.9   13.69       0    999.0
 297   21:10   48.1    48    2.0   261      4.7   835.2   13.69       0    999.0
 297   21:20   48.8    44    2.2   256      8.1   835.0   13.69       0    999.0
 297   21:30   49.8    41    1.7   258      4.1   834.7   13.69       0    999.0
 297   21:40   48.7    44    2.0   262      3.7   835.2   13.69       0    999.0
 297   21:50   47.8    45    2.0   274      4.5   834.9   13.69       0    999.0
 297   22:00   49.5    38    2.7   257      6.5   834.7   13.69       0    999.0
 297   22:10   51.6    34    2.3   222      7.1   835.2   13.69       0    999.0
 297   22:20   52.1    32    3.2   277     12.5   834.9   13.69       0    999.0
 297   22:30   52.9    30    3.8   246     11.7   834.7   13.69       0    999.0
 297   22:40   47.9    22    3.8   320      6.3     0.0   13.69       0    999.0
 297   22:50   53.3    30    3.5   282      9.2   431.4   13.69       0    999.0
 297   23:00   53.0    30    4.7   288     13.4   834.9   13.69       0    999.0
 297   23:10   53.1    30    4.9   270     10.7   834.5   13.69       0    999.0
 297   23:20   49.0    24    5.0   284      8.3     0.0   13.69       0    999.0
 297   23:30   52.9    28    4.3   270      9.2    13.9   13.69       0    999.0
 297   23:40   53.0    28    4.0   285      8.6   834.6   13.69       0    999.0
 297   23:50   53.1    27    4.1   286      8.4   834.5   13.69       0    999.0
 298    0:00   52.9    28    4.0   275     12.3   834.4   13.69       0    999.0
 298    0:10   52.9    28    3.9   260     12.4   834.1   13.69       0    999.0
 298    0:20   52.9    28    3.9   275      9.9   834.1   13.69       0    999.0
 298    0:30   52.8    28    4.6   277      9.8   834.1   13.69       0    999.0
 298    0:40   32.0     0    0.0     0      0.0     0.0   -2.85       0    999.0
 298    0:50   51.4    29    5.6   290     13.4   431.2   13.69       0    999.0
 298    1:00   51.9    32    5.2   269     17.7   834.5   13.69       0    999.0
 298    1:10   51.4    32    4.5   243     12.1   834.1   13.69       0    999.0
 298    1:20   50.8    34    3.3   260      7.9   834.2   13.69       0    999.0
 298    1:30   50.4    35    3.6   307     12.0   834.4   13.69       0    999.0
 298    1:40   50.1    36    3.5   250     10.2   834.3   13.69       0    999.0
 298    1:50   50.0    36    4.7   281     10.6   833.9   13.69       0    999.0
 298    2:00   49.7    37    2.5   290     10.3   833.6   13.69       0    999.0
 298    2:10   49.5    37    5.1   289     13.0   834.0   13.69       0    999.0
 298    2:20   49.5    37    4.4   290     12.1   833.9   13.69       0    999.0
 298    2:30   49.2    38    3.4   258      9.3   833.7   13.69       0    999.0
 298    2:40   49.2    38    4.5   211     13.3   833.5   13.69       0    999.0
 298    2:50   49.1    38    3.8   269      8.6   833.6   13.69       0    999.0
 298    3:00   48.7    38    4.9   197     11.5   833.6   13.69       0    999.0
 298    3:10   48.8    38    3.4   192     10.6   833.0   13.69       0    999.0
 298    3:20   48.3    38    3.8    98      9.2   833.2   13.69       0    999.0
 298    3:30   48.2    40    4.8   145     12.5   833.4   13.69       0    999.0
 298    3:40   47.8    40    3.1    93      9.1   832.8   13.69       0    999.0
 298    3:50   47.5    42    2.8    90      9.3   832.9   13.69       0    999.0
 298    4:00   46.9    43    2.7   307     12.5   833.0   13.69       0    999.0
 298    4:10   46.9    44    3.5   294     11.9   832.7   13.69       0    999.0
 298    4:20   46.5    44    2.4   328      5.1   832.7   13.69       0    999.0
 298    4:30   46.1    45    2.5   237     10.4   832.8   13.69       0    999.0
 298    4:40   46.2    45    3.4   251      8.5   832.6   13.69       0    999.0
 298    4:50   46.1    46    4.1   260     19.4   832.8   13.69       0    999.0
 298    5:00   46.0    46    4.4   282     11.5   833.0   13.69       0    999.0
 298    5:10   45.8    47    4.7   264     15.9   832.8   13.69       0    999.0
 298    5:20   45.6    49    4.8   270     13.5   833.0   13.69       0    999.0
 298    5:30   45.2    50    3.8   264     10.1   833.2   13.69       0    999.0
 298    5:40   45.0    52    5.1   250     23.2   832.9   13.69       0    999.0
 298    5:50   44.7    55    3.8   251      8.6   833.1   13.69       0    999.0
 298    6:00   44.3    57    5.1   288     16.4   833.3   13.69       0    999.0
 298    6:10   43.9    58    3.6   247     10.2   832.7   13.69       0    999.0
 298    6:20   43.9    58    5.1   271     13.4   833.0   13.69       1    999.0
 298    6:30   43.9    58    3.8   212     12.3   833.3   13.69       3    999.0
 298    6:40   43.8    58    3.5   250     14.1   832.9   13.69       5    999.0
 298    6:50   44.1    56    4.8   191      9.9   833.1   13.69       8    999.0
 298    7:00   44.1    56    4.9   253     16.8   833.4   13.69      12    999.0
 298    7:10   44.4    56    5.0   255      9.0   832.9   13.69      20    999.0
 298    7:20   44.3    57    3.8   256     13.0   833.1   13.69      23    999.0
 298    7:30   44.5    56    5.4   235     12.4   833.4   13.69      24    999.0
 298    7:40   45.1    54    5.1   267     18.2   833.1   13.69      55    999.0
 298    7:50   46.0    50    4.1   262      9.6   833.3   13.69      99    999.0
 298    8:00   46.7    48    2.6   307      9.1   833.6   13.69      53    999.0
 298    8:10   47.5    46    4.5   257     16.2   833.0   13.69     188    999.0
 298    8:20   48.5    48    3.9   259     10.6   833.2   13.69     324    999.0
 298    8:30   49.4    48    3.9   232      9.8   833.4   13.69     369    999.0
 298    8:40   49.8    51    4.2   236     11.1   833.5   13.69     307    999.0
 298    8:50   46.5    64    5.1   281     13.6   833.7   13.69     319    999.0
 298    9:00   45.2    69    3.8   255     13.6   833.9   13.69     320    999.0
 298    9:10   45.5    67    3.4   267     11.1   833.5   13.69     304    999.0
 298    9:20   44.6    72    4.3   280      9.3   833.8   13.70     163    999.0
 298    9:30   42.0    81    4.1   290     11.4   834.0   13.71     218    999.0
 298    9:40   41.5    83    2.9   247      7.7   833.7   13.71      78    999.0
 298    9:50   41.3    84    2.4   226      5.7   833.8   13.71      98    999.0
 298   10:00   41.5    84    3.1   228      8.0   833.9   13.71     195    999.0
 298   10:10   42.5    85    3.3   174     13.5   833.7   13.71     274    999.0
 298   10:20   43.3    84    3.7   235     10.0   833.8   13.71     318    999.0
 298   10:30   43.7    81    4.0   262      8.3   833.8   13.71     386    999.0
 298   10:40   44.3    81    3.2   224      9.2   833.7   13.71     324    999.0
 298   10:50   43.9    80    4.9   268     12.8   833.9   13.72     265    999.0
 298   11:00   42.8    84    4.1   251     10.4   834.2   13.73     199    999.0
 298   11:10   42.1    86    3.5   268      9.5   834.2   13.75     189    999.0
 298   11:20   40.8    86    3.5   247     11.2   834.4   13.77     153    999.0
 298   11:30   39.9    87    3.1   222      7.0   834.5   13.78     125    999.0
 298   11:40   37.9    86    4.5   255     10.6   835.0   13.81      80    999.0
 298   11:50   36.2    88    3.3   245      9.7   835.1   13.85      89    999.0
 298   12:00   35.6    90    3.8   244      9.4   835.1   13.87     117    999.0
 298   12:10   35.6    91    3.5   249      8.5   834.8   13.89      53    999.0
 298   12:20   35.1    91    3.8   243      8.4   834.9   13.91      50    999.0
 298   12:30   34.4    91    3.8   250      8.1   835.0   13.95      43    999.0
 298   12:40   34.3    92    3.6   245      8.6   834.7   13.97      62    999.0
 298   12:50   34.7    92    3.5   248      8.2   835.3   13.98      25    999.0
 298   13:00   34.5    92    2.8   248      6.7   835.9   14.00      39    999.0
 298   13:10   34.5    92    2.9   247      7.5   835.7   14.01     170    999.0
 298   13:20   36.2    92    2.3   248      7.8   835.4   14.01     265    999.0
 298   13:30   37.8    90    3.0   227      5.2   835.1   14.01     167    999.0
 298   13:40   38.7    88    2.7   223      6.6   835.7   14.01     376    999.0
 298   13:50   39.5    85    2.6   241      5.4   835.7   14.01     223    999.0
 298   14:00   39.0    87    3.0   249      7.8   835.7   14.01     274    999.0
 298   14:10   39.0    87    2.8   228      6.7   835.2   14.01     259    999.0
 298   14:20   38.6    86    2.1   223      5.8   835.5   14.01     162    999.0
 298   14:30   38.4    87    2.9   249      6.9   835.8   14.02     175    999.0
 298   14:40   38.2    88    2.1   266      4.2   835.5   14.02     162    999.0
 298   14:50   38.4    88    2.9   234      8.5   835.5   14.01     241    999.0
 298   15:00   38.3    87    2.6   245      8.5   835.5   14.02     203    999.0
 298   15:10   38.3    87    2.9   246      9.3   835.5   14.02     298    999.0
 298   15:20   38.2    85    3.0   255      8.9   835.3   14.02      38    999.0
 298   15:30   38.4    82    3.8   268      8.5   835.1   14.02      26    999.0
 298   15:40   38.7    80    3.7   264      9.4   835.5   14.02      27    999.0
 298   15:50   38.4    80    3.2   244     10.9   835.4   14.02      26    999.0
 298   16:00   37.9    82    3.2   271     12.1   835.3   14.02      24    999.0
 298   16:10   38.0    81    3.2   238      6.6   835.0   14.02      22    999.0
 298   16:20   37.7    81    2.6   258      6.3   835.1   14.02      14    999.0
 298   16:30   36.2    67    2.0   240      4.9    32.1   14.02      13    999.0
 298   16:40   37.3    84    2.9   232      7.7   835.1   14.02      12    999.0
 298   16:50   37.5    82    3.5   234      7.6   835.0   14.02       7    999.0
 298   17:00   37.7    81    3.6   242      8.3   834.8   14.02       5    999.0
 298   17:10   37.5    81    2.6   256      8.7   834.8   14.02       3    999.0
 298   17:20   37.3    82    2.7   257      7.7   834.8   14.02       1    999.0
 298   17:30   37.1    83    2.6   209      6.3   834.7   14.02       0    999.0
 298   17:40   37.2    81    2.6   262      5.6   835.1   14.02       0    999.0
 298   17:50   36.9    83    1.9   247      6.6   835.2   14.02       0    999.0
 298   18:00   36.9    82    3.4   251      9.2   835.4   14.02       0    999.0
 298   18:10   37.4    79    3.2   253      7.1   834.6   14.02       0    999.0
 298   18:20   37.2    80    3.5   248     10.0   834.7   14.02       0    999.0
 298   18:30   37.1    81    2.6   228      7.1   834.8   14.02       0    999.0
 298   18:40   37.2    80    3.1   255      8.3   835.0   14.02       0    999.0

Return to Sagehen Creek graphs page.


Western Regional Climate Center,wrcc@dri.edu